Time;durP1;ratioP1;P1;durP2;ratioP2;P2;SDS_P1;SDS_P2;PMS_P1;PMS_P2;Temp;Humidity;BMP_temperature;BMP_pressure;BME280_temperature;BME280_humidity;BME280_pressure;Samples;Min_cycle;Max_cycle;Signal;HPM_P1;HPM_P2
2023/07/18 00:00:46;;;;;;;;;;;16.00;99.90;;;;;;8374294;28;20295;-71
2023/07/18 00:04:47;;;;;;;;;;;16.00;99.90;;;;;;8383392;28;19931;-71
2023/07/18 00:08:49;;;;;;;;;;;16.00;99.90;;;;;;8387554;28;19932;-71
2023/07/18 00:12:51;;;;;;;;;;;15.90;99.90;;;;;;8387552;28;19948;-71
2023/07/18 00:16:52;;;;;;;;;;;15.90;99.90;;;;;;8393812;28;20287;-71
2023/07/18 00:20:54;;;;;;;;;;;15.90;99.90;;;;;;8355622;28;19928;-71
2023/07/18 00:24:56;;;;;;;;;;;15.90;99.90;;;;;;8351699;28;19925;-71
2023/07/18 00:28:58;;;;;;;;;;;15.80;99.90;;;;;;8374350;28;20295;-71
2023/07/18 00:33:00;;;;;;;;;;;15.80;99.90;;;;;;8365123;28;19947;-71
2023/07/18 00:37:01;;;;;;;;;;;15.80;99.90;;;;;;8379831;28;20443;-71
2023/07/18 00:41:04;;;;;;;;;;;15.80;99.90;;;;;;8358409;28;20135;-71
2023/07/18 00:45:06;;;;;;;;;;;15.80;99.90;;;;;;8386127;28;19974;-71
2023/07/18 00:49:08;;;;;;;;;;;15.70;99.90;;;;;;8373120;28;19929;-71
2023/07/18 00:53:10;;;;;;;;;;;15.70;99.90;;;;;;8369732;28;20395;-71
2023/07/18 00:57:12;;;;;;;;;;;15.60;99.90;;;;;;8376893;28;19931;-71
2023/07/18 01:01:14;;;;;;;;;;;15.60;99.90;;;;;;8373392;28;20458;-71
2023/07/18 01:05:16;;;;;;;;;;;15.50;99.90;;;;;;8365327;28;19924;-71
2023/07/18 01:09:19;;;;;;;;;;;15.50;99.90;;;;;;8381321;28;19929;-71
2023/07/18 01:13:20;;;;;;;;;;;15.40;99.90;;;;;;8391413;28;19929;-71
2023/07/18 01:17:22;;;;;;;;;;;15.40;99.90;;;;;;8349918;28;19925;-71
2023/07/18 01:21:24;;;;;;;;;;;15.30;99.90;;;;;;8368373;28;20265;-71
2023/07/18 01:25:26;;;;;;;;;;;15.30;99.90;;;;;;8342434;28;19931;-71
2023/07/18 01:29:28;;;;;;;;;;;15.30;99.90;;;;;;8378827;28;19929;-71
2023/07/18 01:33:29;;;;;;;;;;;15.30;99.90;;;;;;8379329;28;20379;-71
2023/07/18 01:37:35;;;;;;;;;;;15.30;99.90;;;;;;8367939;28;19932;-71
2023/07/18 01:41:37;;;;;;;;;;;15.20;99.90;;;;;;8398677;28;20318;-71
2023/07/18 01:45:38;;;;;;;;;;;15.20;99.90;;;;;;8387975;28;19924;-71
2023/07/18 01:49:40;;;;;;;;;;;15.20;99.90;;;;;;8393408;28;19940;-71
2023/07/18 01:53:41;;;;;;;;;;;15.20;99.90;;;;;;8396699;28;20291;-71
2023/07/18 01:57:45;;;;;;;;;;;15.10;99.90;;;;;;8379134;28;19925;-71
2023/07/18 02:01:46;;;;;;;;;;;15.10;99.90;;;;;;8389542;28;19964;-71
2023/07/18 02:05:48;;;;;;;;;;;15.10;99.90;;;;;;8382758;28;19967;-71
2023/07/18 02:09:50;;;;;;;;;;;15.00;99.90;;;;;;8388772;28;19925;-71
2023/07/18 02:19:00;;;;;;;;;;;15.00;99.90;;;;;;8395065;28;19977;-71
2023/07/18 02:23:02;;;;;;;;;;;15.00;99.90;;;;;;8381440;28;19929;-70
2023/07/18 02:27:04;;;;;;;;;;;14.90;99.90;;;;;;8359509;28;20000;-70
2023/07/18 02:41:38;;;;;;;;;;;14.80;99.90;;;;;;8377862;28;20743;-71
2023/07/18 02:45:39;;;;;;;;;;;14.80;99.90;;;;;;8360202;28;20383;-71
2023/07/18 02:49:41;;;;;;;;;;;14.70;99.90;;;;;;8350114;28;19925;-71
2023/07/18 02:53:43;;;;;;;;;;;14.70;99.90;;;;;;8338744;28;20378;-71
2023/07/18 02:57:45;;;;;;;;;;;14.70;99.90;;;;;;8338463;28;20389;-70
2023/07/18 03:01:49;;;;;;;;;;;14.60;99.90;;;;;;8346708;28;19978;-70
2023/07/18 03:05:52;;;;;;;;;;;14.60;99.90;;;;;;8346284;28;19971;-70
2023/07/18 03:09:53;;;;;;;;;;;14.60;99.90;;;;;;8355494;28;19925;-71
2023/07/18 03:13:55;;;;;;;;;;;14.50;99.90;;;;;;8348471;28;19928;-70
2023/07/18 03:17:57;;;;;;;;;;;14.40;99.90;;;;;;8353588;28;19925;-70
2023/07/18 03:21:58;;;;;;;;;;;14.40;99.90;;;;;;8333852;28;19944;-70
2023/07/18 03:26:01;;;;;;;;;;;14.40;99.90;;;;;;8332841;28;19994;-70
2023/07/18 03:30:04;;;;;;;;;;;14.30;99.90;;;;;;8337138;28;20335;-70
2023/07/18 03:34:06;;;;;;;;;;;14.30;99.90;;;;;;8331495;28;19959;-70
2023/07/18 03:38:07;;;;;;;;;;;14.20;99.90;;;;;;8341483;28;19948;-71
2023/07/18 03:42:09;;;;;;;;;;;14.20;99.90;;;;;;8355226;28;19979;-70
2023/07/18 03:46:10;;;;;;;;;;;14.20;99.90;;;;;;8381326;28;19932;-70
2023/07/18 03:50:13;;;;;;;;;;;14.20;99.90;;;;;;8386438;28;20450;-70
2023/07/18 03:54:15;;;;;;;;;;;14.10;99.90;;;;;;8387827;28;19924;-70
2023/07/18 03:58:17;;;;;;;;;;;14.10;99.90;;;;;;8370268;28;19970;-70
2023/07/18 04:02:19;;;;;;;;;;;14.10;99.90;;;;;;8383227;28;19935;-70
2023/07/18 04:06:21;;;;;;;;;;;14.10;99.90;;;;;;8371454;28;19929;-70
2023/07/18 04:10:22;;;;;;;;;;;14.10;99.90;;;;;;8374746;28;19978;-70
2023/07/18 04:14:24;;;;;;;;;;;14.10;99.90;;;;;;8387433;28;19929;-71
2023/07/18 04:18:26;;;;;;;;;;;14.10;99.90;;;;;;8384820;28;19932;-71
2023/07/18 04:22:29;;;;;;;;;;;14.10;99.90;;;;;;8379969;28;19928;-71
2023/07/18 04:26:31;;;;;;;;;;;14.10;99.90;;;;;;8380221;28;20368;-70
2023/07/18 04:30:32;;;;;;;;;;;14.10;99.90;;;;;;8365795;28;19935;-70
2023/07/18 04:34:34;;;;;;;;;;;14.20;99.90;;;;;;8381993;28;19947;-70
2023/07/18 04:38:37;;;;;;;;;;;14.10;99.90;;;;;;8387992;28;20308;-70
2023/07/18 04:42:40;;;;;;;;;;;14.20;99.90;;;;;;8393616;28;19980;-70
2023/07/18 04:46:42;;;;;;;;;;;14.20;99.90;;;;;;8369221;28;19931;-70
2023/07/18 05:00:57;;;;;;;;;;;14.50;99.90;;;;;;8373040;28;20022;-70
2023/07/18 05:04:58;;;;;;;;;;;14.60;99.90;;;;;;8386408;28;19931;-70
2023/07/18 05:09:00;;;;;;;;;;;14.70;99.90;;;;;;8359398;28;20059;-70
2023/07/18 05:13:02;;;;;;;;;;;14.80;99.90;;;;;;8392841;28;19925;-70
2023/07/18 05:17:03;;;;;;;;;;;14.80;99.90;;;;;;8399800;28;20264;-70
2023/07/18 05:21:05;;;;;;;;;;;14.90;99.90;;;;;;8369372;28;19928;-70
2023/07/18 05:25:08;;;;;;;;;;;15.00;99.90;;;;;;8380988;28;19936;-70
2023/07/18 05:29:09;;;;;;;;;;;15.10;99.90;;;;;;8366876;28;20338;-70
2023/07/18 05:33:12;;;;;;;;;;;15.20;99.90;;;;;;8376932;28;19925;-70
2023/07/18 05:37:13;;;;;;;;;;;15.30;99.90;;;;;;8374324;28;19931;-70
2023/07/18 05:41:15;;;;;;;;;;;15.40;99.90;;;;;;8381622;28;19925;-70
2023/07/18 05:45:17;;;;;;;;;;;15.60;99.90;;;;;;8380431;28;20030;-70
2023/07/18 05:49:18;;;;;;;;;;;15.60;99.90;;;;;;8386423;28;20334;-70
2023/07/18 05:53:20;;;;;;;;;;;15.70;99.90;;;;;;8393922;28;20391;-70
2023/07/18 05:57:22;;;;;;;;;;;15.80;99.90;;;;;;8395659;28;19974;-70
2023/07/18 06:01:23;;;;;;;;;;;15.90;99.90;;;;;;8400318;28;20388;-70
2023/07/18 06:05:25;;;;;;;;;;;16.00;99.90;;;;;;8375759;28;20018;-70
2023/07/18 06:09:27;;;;;;;;;;;16.20;99.90;;;;;;8368114;28;19929;-70
2023/07/18 06:13:29;;;;;;;;;;;16.30;99.90;;;;;;8378814;28;19928;-70
2023/07/18 06:22:40;;;;;;;;;;;16.50;99.90;;;;;;8369211;28;19920;-71
2023/07/18 06:26:48;;;;;;;;;;;16.60;99.90;;;;;;8384698;28;19931;-70
2023/07/18 06:30:54;;;;;;;;;;;16.70;99.90;;;;;;8375567;28;19963;-70
2023/07/18 06:34:56;;;;;;;;;;;16.70;99.90;;;;;;8379840;28;19978;-70
2023/07/18 06:39:01;;;;;;;;;;;16.80;99.90;;;;;;8403960;28;20021;-70
2023/07/18 06:43:03;;;;;;;;;;;16.90;99.90;;;;;;8397149;28;19925;-70
2023/07/18 06:47:04;;;;;;;;;;;17.00;99.90;;;;;;8385742;28;20375;-70
2023/07/18 06:51:06;;;;;;;;;;;17.00;99.90;;;;;;8378876;28;19935;-71
2023/07/18 06:55:10;;;;;;;;;;;17.10;99.90;;;;;;8398675;28;19968;-71
2023/07/18 06:59:13;;;;;;;;;;;17.20;99.90;;;;;;8376145;28;20335;-71
2023/07/18 07:03:15;;;;;;;;;;;17.20;99.90;;;;;;8388191;28;19989;-70
2023/07/18 07:07:17;;;;;;;;;;;17.20;99.90;;;;;;8390765;28;19928;-70
2023/07/18 07:11:18;;;;;;;;;;;17.20;99.90;;;;;;8381533;28;19925;-70
2023/07/18 07:15:20;;;;;;;;;;;17.20;99.90;;;;;;8370939;28;19929;-70
2023/07/18 07:19:22;;;;;;;;;;;17.40;99.90;;;;;;8370301;28;20402;-70
2023/07/18 07:23:24;;;;;;;;;;;17.40;99.90;;;;;;8367535;28;20422;-70
2023/07/18 07:27:25;;;;;;;;;;;17.40;99.90;;;;;;8374806;28;20284;-70
2023/07/18 07:31:27;;;;;;;;;;;17.50;99.90;;;;;;8375926;28;20450;-70
2023/07/18 07:35:29;;;;;;;;;;;17.60;99.90;;;;;;8377867;28;19931;-70
2023/07/18 07:39:31;;;;;;;;;;;17.70;99.90;;;;;;8379401;28;19935;-70
2023/07/18 07:43:33;;;;;;;;;;;17.70;99.90;;;;;;8380539;28;19928;-70
2023/07/18 07:47:35;;;;;;;;;;;17.80;99.90;;;;;;8389195;28;20295;-70
2023/07/18 07:51:37;;;;;;;;;;;17.90;99.90;;;;;;8389637;28;19924;-70
2023/07/18 07:55:39;;;;;;;;;;;17.90;99.90;;;;;;8386974;28;19925;-70
2023/07/18 07:59:42;;;;;;;;;;;18.00;99.90;;;;;;8364798;28;19939;-70
2023/07/18 08:03:44;;;;;;;;;;;18.10;99.90;;;;;;8374423;28;19925;-70
2023/07/18 08:07:46;;;;;;;;;;;18.20;99.90;;;;;;8376265;28;19933;-71
2023/07/18 08:11:48;;;;;;;;;;;18.20;99.90;;;;;;8326687;28;20051;-71
2023/07/18 08:15:50;;;;;;;;;;;18.30;99.90;;;;;;8345234;28;19929;-70
2023/07/18 08:19:52;;;;;;;;;;;18.30;99.90;;;;;;8329500;28;19924;-70
2023/07/18 08:23:54;;;;;;;;;;;18.40;99.90;;;;;;8333254;28;19932;-70
2023/07/18 08:27:56;;;;;;;;;;;18.50;99.90;;;;;;8325514;28;19929;-71
2023/07/18 08:31:58;;;;;;;;;;;18.60;99.90;;;;;;8341489;28;19972;-70
2023/07/18 08:36:00;;;;;;;;;;;18.70;99.90;;;;;;8324144;28;19939;-70
2023/07/18 08:40:03;;;;;;;;;;;18.70;99.90;;;;;;8324662;28;19928;-71
2023/07/18 08:44:07;;;;;;;;;;;18.80;99.90;;;;;;8333778;28;19971;-70
2023/07/18 08:48:09;;;;;;;;;;;18.90;99.90;;;;;;8341160;28;20361;-70
2023/07/18 08:52:10;;;;;;;;;;;18.90;99.90;;;;;;8308809;28;20032;-70
2023/07/18 08:56:12;;;;;;;;;;;19.00;99.90;;;;;;8324210;28;19925;-70
2023/07/18 09:00:14;;;;;;;;;;;19.00;99.90;;;;;;8328913;28;19936;-71
2023/07/18 09:04:16;;;;;;;;;;;19.10;99.90;;;;;;8331237;28;19983;-71
2023/07/18 09:08:18;;;;;;;;;;;19.10;99.90;;;;;;8328325;28;19972;-71
2023/07/18 09:12:20;;;;;;;;;;;19.30;99.90;;;;;;8348029;28;19925;-71
2023/07/18 09:16:22;;;;;;;;;;;19.40;99.90;;;;;;8329357;28;19959;-71
2023/07/18 09:20:25;;;;;;;;;;;19.50;99.90;;;;;;8343454;28;19925;-71
2023/07/18 09:24:31;;;;;;;;;;;19.50;99.90;;;;;;8329692;28;19929;-71
2023/07/18 09:28:33;;;;;;;;;;;19.60;99.90;;;;;;8324307;28;19945;-71
2023/07/18 09:32:35;;;;;;;;;;;19.70;99.90;;;;;;8327681;28;19933;-70
2023/07/18 09:36:37;;;;;;;;;;;19.80;99.90;;;;;;8324727;28;19983;-71
2023/07/18 09:40:40;;;;;;;;;;;19.80;99.90;;;;;;8331776;28;20343;-70
2023/07/18 09:44:42;;;;;;;;;;;19.90;99.90;;;;;;8329166;28;20383;-71
2023/07/18 09:48:45;;;;;;;;;;;19.80;99.90;;;;;;8323046;28;20357;-71
2023/07/18 09:52:50;;;;;;;;;;;19.80;99.90;;;;;;8326584;28;19944;-71
2023/07/18 09:56:53;;;;;;;;;;;19.90;99.90;;;;;;8338859;28;19932;-71
2023/07/18 10:00:56;;;;;;;;;;;19.80;99.90;;;;;;8329079;28;24403;-71
2023/07/18 10:04:57;;;;;;;;;;;19.90;99.90;;;;;;8350156;28;19964;-71
2023/07/18 10:09:01;;;;;;;;;;;19.90;99.90;;;;;;8331547;28;19929;-70
2023/07/18 10:13:02;;;;;;;;;;;20.00;99.90;;;;;;8333552;28;19932;-70
2023/07/18 10:17:06;;;;;;;;;;;20.00;99.90;;;;;;8329394;28;20331;-71
2023/07/18 10:21:11;;;;;;;;;;;20.00;99.90;;;;;;8334080;28;19928;-71
2023/07/18 10:25:13;;;;;;;;;;;20.00;99.90;;;;;;8329585;28;19933;-71
2023/07/18 10:29:14;;;;;;;;;;;20.10;99.90;;;;;;8336745;28;19925;-70
2023/07/18 10:33:16;;;;;;;;;;;20.20;99.90;;;;;;8332180;28;19945;-71
2023/07/18 10:37:22;;;;;;;;;;;20.40;99.90;;;;;;8333586;28;19968;-70
2023/07/18 10:41:24;;;;;;;;;;;20.50;99.90;;;;;;8327160;28;20032;-71
2023/07/18 10:45:26;;;;;;;;;;;20.60;99.90;;;;;;8335575;28;20285;-71
2023/07/18 10:49:31;;;;;;;;;;;20.70;99.90;;;;;;8336710;28;19933;-71
2023/07/18 10:53:33;;;;;;;;;;;20.90;99.90;;;;;;8333882;28;20303;-70
2023/07/18 10:57:38;;;;;;;;;;;21.00;99.90;;;;;;8334384;28;20372;-71
2023/07/18 11:01:40;;;;;;;;;;;21.10;99.90;;;;;;8346026;28;19936;-71
2023/07/18 11:05:44;;;;;;;;;;;21.10;99.90;;;;;;8329980;28;19936;-71
2023/07/18 11:09:45;;;;;;;;;;;21.10;99.90;;;;;;8331112;28;19925;-71
2023/07/18 11:13:47;;;;;;;;;;;21.10;99.90;;;;;;8350003;28;19925;-71
2023/07/18 11:17:49;;;;;;;;;;;21.20;99.90;;;;;;8329080;28;19931;-71
2023/07/18 11:21:51;;;;;;;;;;;21.30;99.90;;;;;;8327594;28;20395;-71
2023/07/18 11:25:53;;;;;;;;;;;21.30;99.90;;;;;;8331691;28;19929;-72
2023/07/18 11:29:56;;;;;;;;;;;21.30;99.90;;;;;;8335064;28;20293;-71
2023/07/18 11:33:58;;;;;;;;;;;21.40;99.90;;;;;;8328059;28;19929;-71
2023/07/18 11:38:00;;;;;;;;;;;21.30;99.90;;;;;;8326935;28;19933;-71
2023/07/18 11:42:06;;;;;;;;;;;21.20;99.90;;;;;;8330931;28;19925;-71
2023/07/18 11:46:09;;;;;;;;;;;21.10;99.90;;;;;;8332229;28;19936;-71
2023/07/18 11:50:11;;;;;;;;;;;21.10;99.90;;;;;;8326396;28;20403;-71
2023/07/18 11:54:13;;;;;;;;;;;21.20;99.90;;;;;;8341884;28;19929;-71
2023/07/18 11:58:14;;;;;;;;;;;21.40;99.90;;;;;;8330437;28;19929;-71
2023/07/18 12:02:16;;;;;;;;;;;21.50;99.90;;;;;;8327915;28;19932;-71
2023/07/18 12:06:21;;;;;;;;;;;21.60;99.90;;;;;;8330490;28;19929;-71
2023/07/18 12:20:59;;;;;;;;;;;22.00;99.90;;;;;;8330498;28;19921;-71
2023/07/18 12:25:03;;;;;;;;;;;22.00;99.90;;;;;;8327389;28;20357;-72
2023/07/18 12:29:05;;;;;;;;;;;22.00;99.90;;;;;;8343244;28;20285;-72
2023/07/18 12:33:07;;;;;;;;;;;22.10;99.90;;;;;;8331458;28;19967;-71
2023/07/18 12:37:10;;;;;;;;;;;22.20;99.90;;;;;;8327360;28;19931;-71
2023/07/18 12:41:12;;;;;;;;;;;22.20;99.90;;;;;;8329430;28;19925;-71
2023/07/18 12:45:14;;;;;;;;;;;22.30;99.90;;;;;;8327966;28;19951;-72
2023/07/18 12:49:16;;;;;;;;;;;22.30;99.90;;;;;;8324314;28;20399;-71
2023/07/18 12:53:37;;;;;;;;;;;22.40;99.90;;;;;;8342144;28;19932;-71
2023/07/18 12:57:39;;;;;;;;;;;22.50;99.90;;;;;;8329228;28;20415;-71
2023/07/18 13:01:41;;;;;;;;;;;22.50;99.90;;;;;;8341395;28;19925;-71
2023/07/18 13:05:43;;;;;;;;;;;22.60;99.90;;;;;;8336688;28;20435;-71
2023/07/18 13:09:45;;;;;;;;;;;22.70;99.90;;;;;;8325861;28;19986;-71
2023/07/18 13:13:47;;;;;;;;;;;22.70;99.90;;;;;;8328276;28;19929;-72
2023/07/18 13:17:48;;;;;;;;;;;22.70;99.90;;;;;;8340894;28;19925;-72
2023/07/18 13:21:50;;;;;;;;;;;22.80;99.90;;;;;;8327632;28;20371;-71
2023/07/18 13:25:52;;;;;;;;;;;22.80;99.90;;;;;;8324535;28;20353;-72
2023/07/18 13:29:53;;;;;;;;;;;22.80;99.90;;;;;;8322401;28;19929;-71
2023/07/18 13:33:55;;;;;;;;;;;22.90;99.90;;;;;;8345114;28;19979;-72
2023/07/18 13:37:57;;;;;;;;;;;23.00;99.90;;;;;;8333154;28;19925;-72
2023/07/18 13:41:58;;;;;;;;;;;23.00;99.90;;;;;;8330082;28;20382;-72
2023/07/18 13:46:00;;;;;;;;;;;23.00;99.90;;;;;;8346844;28;19929;-71
2023/07/18 13:59:46;;;;;;;;;;;23.00;99.90;;;;;;8333019;28;19932;-72
2023/07/18 14:03:48;;;;;;;;;;;23.10;99.90;;;;;;8334818;28;20331;-72
2023/07/18 14:07:50;;;;;;;;;;;23.10;99.90;;;;;;8347094;28;19929;-72
2023/07/18 14:11:52;;;;;;;;;;;23.20;99.90;;;;;;8327982;28;19929;-72
2023/07/18 14:15:54;;;;;;;;;;;23.20;99.90;;;;;;8345673;28;19932;-72
2023/07/18 14:19:56;;;;;;;;;;;23.20;99.90;;;;;;8332779;28;20281;-71
2023/07/18 14:23:58;;;;;;;;;;;23.30;99.90;;;;;;8333908;28;19929;-71
2023/07/18 14:27:59;;;;;;;;;;;23.30;99.90;;;;;;8329834;28;19933;-72
2023/07/18 14:32:01;;;;;;;;;;;23.40;99.90;;;;;;8330480;28;19929;-71
2023/07/18 14:36:03;;;;;;;;;;;23.50;99.90;;;;;;8330772;28;20368;-72
2023/07/18 14:40:06;;;;;;;;;;;23.60;99.90;;;;;;8348281;28;19924;-72
2023/07/18 14:44:10;;;;;;;;;;;23.70;99.90;;;;;;8332579;28;20460;-72
2023/07/18 14:48:12;;;;;;;;;;;23.80;99.90;;;;;;8316179;28;19925;-72
2023/07/18 15:02:45;;;;;;;;;;;24.00;99.90;;;;;;8322837;28;20399;-72
2023/07/18 15:06:52;;;;;;;;;;;24.00;99.90;;;;;;8331743;28;20031;-72
2023/07/18 15:10:53;;;;;;;;;;;24.00;99.90;;;;;;8328557;28;20344;-72
2023/07/18 15:14:55;;;;;;;;;;;23.80;99.90;;;;;;8332613;28;19929;-72
2023/07/18 15:18:57;;;;;;;;;;;23.70;99.90;;;;;;8345465;28;19971;-72
2023/07/18 15:22:58;;;;;;;;;;;23.70;99.90;;;;;;8331179;28;19925;-72
2023/07/18 15:27:00;;;;;;;;;;;23.70;99.90;;;;;;8329510;28;19933;-72
2023/07/18 15:31:04;;;;;;;;;;;23.80;99.90;;;;;;8332482;28;19944;-72
2023/07/18 15:35:06;;;;;;;;;;;23.80;99.90;;;;;;8329616;28;20312;-72
2023/07/18 15:39:08;;;;;;;;;;;23.90;99.90;;;;;;8325455;28;20360;-72
2023/07/18 15:43:09;;;;;;;;;;;24.10;99.90;;;;;;8332050;28;19932;-72
2023/07/18 15:47:11;;;;;;;;;;;24.20;99.90;;;;;;8329652;28;19925;-72
2023/07/18 15:51:13;;;;;;;;;;;24.30;99.90;;;;;;8333842;28;19925;-73
2023/07/18 15:55:15;;;;;;;;;;;24.40;99.90;;;;;;8325799;28;19956;-72
2023/07/18 15:59:16;;;;;;;;;;;24.60;99.90;;;;;;8323442;28;20030;-72
2023/07/18 16:03:18;;;;;;;;;;;24.80;99.90;;;;;;8328034;28;19951;-73
2023/07/18 16:07:20;;;;;;;;;;;25.10;99.90;;;;;;8336214;28;19932;-72
2023/07/18 16:11:21;;;;;;;;;;;25.50;99.90;;;;;;8325908;28;19987;-72
2023/07/18 16:15:23;;;;;;;;;;;25.70;99.90;;;;;;8326985;28;19936;-72
2023/07/18 16:19:25;;;;;;;;;;;25.80;99.90;;;;;;8342860;28;19955;-72
2023/07/18 16:23:29;;;;;;;;;;;25.70;99.90;;;;;;8327396;28;19929;-72
2023/07/18 16:27:30;;;;;;;;;;;25.70;99.90;;;;;;8328603;28;20292;-72
2023/07/18 16:31:32;;;;;;;;;;;25.60;99.90;;;;;;8343116;28;19925;-72
2023/07/18 16:35:35;;;;;;;;;;;25.50;99.90;;;;;;8327498;28;19925;-72
2023/07/18 16:39:36;;;;;;;;;;;25.50;99.90;;;;;;8325956;28;20270;-72
2023/07/18 16:43:38;;;;;;;;;;;25.40;99.90;;;;;;8324727;28;19929;-72
2023/07/18 16:47:40;;;;;;;;;;;25.20;99.90;;;;;;8325956;28;19941;-72
2023/07/18 16:51:41;;;;;;;;;;;25.20;99.90;;;;;;8346795;28;19971;-72
2023/07/18 16:55:43;;;;;;;;;;;25.00;99.90;;;;;;8327041;28;19940;-72
2023/07/18 16:59:45;;;;;;;;;;;24.80;99.90;;;;;;8326412;28;19947;-72
2023/07/18 17:03:47;;;;;;;;;;;24.60;99.90;;;;;;8344044;28;19925;-72
2023/07/18 17:07:48;;;;;;;;;;;24.40;99.90;;;;;;8342731;28;19925;-72
2023/07/18 17:11:50;;;;;;;;;;;24.20;99.90;;;;;;8331616;28;19940;-72
2023/07/18 17:15:52;;;;;;;;;;;24.10;99.90;;;;;;8334636;28;20306;-72
2023/07/18 17:19:53;;;;;;;;;;;24.10;99.90;;;;;;8341199;28;19984;-72
2023/07/18 17:24:07;;;;;;;;;;;24.00;99.90;;;;;;8329875;28;20369;-72
2023/07/18 17:28:09;;;;;;;;;;;23.80;99.90;;;;;;8329767;28;20416;-72
2023/07/18 17:32:10;;;;;;;;;;;23.80;99.90;;;;;;8332442;28;19932;-72
2023/07/18 17:36:12;;;;;;;;;;;23.60;99.90;;;;;;8348549;28;20335;-72
2023/07/18 17:40:14;;;;;;;;;;;23.50;99.90;;;;;;8326612;28;19925;-72
2023/07/18 17:44:16;;;;;;;;;;;23.50;99.90;;;;;;8325271;28;19975;-72
2023/07/18 17:48:17;;;;;;;;;;;23.50;99.90;;;;;;8347796;28;19925;-72
2023/07/18 17:52:19;;;;;;;;;;;23.40;99.90;;;;;;8336439;28;19929;-72
2023/07/18 17:56:22;;;;;;;;;;;23.40;99.90;;;;;;8330002;28;19982;-72
2023/07/18 18:00:23;;;;;;;;;;;23.30;99.90;;;;;;8327139;28;19979;-72
2023/07/18 18:04:25;;;;;;;;;;;23.30;99.90;;;;;;8327490;28;19951;-72
2023/07/18 18:08:27;;;;;;;;;;;23.20;99.90;;;;;;8331268;28;19944;-72
2023/07/18 18:12:29;;;;;;;;;;;23.20;99.90;;;;;;8346667;28;19955;-72
2023/07/18 18:16:31;;;;;;;;;;;23.10;99.90;;;;;;8328695;28;19929;-72
2023/07/18 18:20:33;;;;;;;;;;;23.10;99.90;;;;;;8328382;28;19968;-71
2023/07/18 18:24:36;;;;;;;;;;;23.00;99.90;;;;;;8335233;28;19925;-71
2023/07/18 18:28:38;;;;;;;;;;;22.90;99.90;;;;;;8330617;28;19925;-71
2023/07/18 18:32:39;;;;;;;;;;;22.80;99.90;;;;;;8331933;28;19929;-71
2023/07/18 18:36:41;;;;;;;;;;;22.80;99.90;;;;;;8336968;28;20023;-71
2023/07/18 18:40:43;;;;;;;;;;;22.70;99.90;;;;;;8331582;28;19995;-72
2023/07/18 18:44:45;;;;;;;;;;;22.70;99.90;;;;;;8355264;28;19941;-72
2023/07/18 18:48:47;;;;;;;;;;;22.60;99.90;;;;;;8333768;28;19959;-71
2023/07/18 18:52:48;;;;;;;;;;;22.60;99.90;;;;;;8339878;28;19979;-72
2023/07/18 18:56:52;;;;;;;;;;;22.50;99.90;;;;;;8353536;28;20257;-72
2023/07/18 19:00:54;;;;;;;;;;;22.50;99.90;;;;;;8334933;28;19986;-71
2023/07/18 19:04:55;;;;;;;;;;;22.40;99.90;;;;;;8334310;28;19925;-72
2023/07/18 19:08:57;;;;;;;;;;;22.30;99.90;;;;;;8348124;28;19925;-71
2023/07/18 19:12:59;;;;;;;;;;;22.30;99.90;;;;;;8334150;28;19932;-72
2023/07/18 19:17:01;;;;;;;;;;;22.30;99.90;;;;;;8332718;28;19929;-71
2023/07/18 19:21:02;;;;;;;;;;;22.30;99.90;;;;;;8344569;28;19925;-71
2023/07/18 19:25:06;;;;;;;;;;;22.30;99.90;;;;;;8327528;28;20292;-71
2023/07/18 19:29:08;;;;;;;;;;;22.40;99.90;;;;;;8348746;28;20330;-71
2023/07/18 19:33:10;;;;;;;;;;;22.30;99.90;;;;;;8334428;28;19925;-71
2023/07/18 19:37:12;;;;;;;;;;;22.30;99.90;;;;;;8334413;28;20344;-71
2023/07/18 19:41:15;;;;;;;;;;;22.30;99.90;;;;;;8344779;28;20272;-71
2023/07/18 19:45:17;;;;;;;;;;;22.20;99.90;;;;;;8326115;28;19925;-72
2023/07/18 19:49:19;;;;;;;;;;;22.10;99.90;;;;;;8329759;28;19925;-71
2023/07/18 19:53:20;;;;;;;;;;;22.00;99.90;;;;;;8348826;28;20307;-71
2023/07/18 19:57:22;;;;;;;;;;;21.90;99.90;;;;;;8348463;28;19925;-71
2023/07/18 20:01:24;;;;;;;;;;;21.80;99.90;;;;;;8336330;28;19925;-71
2023/07/18 20:05:25;;;;;;;;;;;21.70;99.90;;;;;;8334419;28;19972;-71
2023/07/18 20:09:27;;;;;;;;;;;21.60;99.90;;;;;;8335183;28;19951;-72
2023/07/18 20:13:29;;;;;;;;;;;21.50;99.90;;;;;;8329507;28;19948;-71
2023/07/18 20:17:30;;;;;;;;;;;21.50;99.90;;;;;;8328531;28;19983;-72
2023/07/18 20:21:32;;;;;;;;;;;21.40;99.90;;;;;;8331915;28;19924;-71
2023/07/18 20:25:34;;;;;;;;;;;21.40;99.90;;;;;;8325671;28;19936;-72
2023/07/18 20:29:35;;;;;;;;;;;21.30;99.90;;;;;;8349425;28;20395;-72
2023/07/18 20:33:37;;;;;;;;;;;21.30;99.90;;;;;;8337317;28;19926;-72
2023/07/18 20:37:41;;;;;;;;;;;21.20;99.90;;;;;;8329012;28;19925;-71
2023/07/18 20:41:43;;;;;;;;;;;21.10;99.90;;;;;;8328339;28;19925;-71
2023/07/18 20:45:54;;;;;;;;;;;21.00;99.90;;;;;;8326829;28;19925;-71
2023/07/18 20:49:56;;;;;;;;;;;20.90;99.90;;;;;;8326966;28;19929;-71
2023/07/18 20:53:58;;;;;;;;;;;20.80;99.90;;;;;;8330737;28;19934;-71
2023/07/18 20:58:00;;;;;;;;;;;20.80;99.90;;;;;;8331662;28;19932;-71
2023/07/18 21:02:01;;;;;;;;;;;20.70;99.90;;;;;;8345891;28;19935;-71
2023/07/18 21:06:03;;;;;;;;;;;20.60;99.90;;;;;;8360166;28;19926;-71
2023/07/18 21:10:05;;;;;;;;;;;20.50;99.90;;;;;;8377478;28;20333;-71
2023/07/18 21:14:07;;;;;;;;;;;20.40;99.90;;;;;;8374391;28;19932;-71
2023/07/18 21:18:08;;;;;;;;;;;20.40;99.90;;;;;;8395631;28;19925;-71
2023/07/18 21:22:10;;;;;;;;;;;20.30;99.90;;;;;;8378304;28;19925;-71
2023/07/18 21:26:11;;;;;;;;;;;20.30;99.90;;;;;;8366124;28;19938;-71
2023/07/18 21:30:13;;;;;;;;;;;20.20;99.90;;;;;;8374716;28;19932;-71
2023/07/18 21:34:15;;;;;;;;;;;20.10;99.90;;;;;;8381250;28;19925;-71
2023/07/18 21:38:17;;;;;;;;;;;20.00;99.90;;;;;;8392621;28;19925;-71
2023/07/18 21:42:19;;;;;;;;;;;20.00;99.90;;;;;;8363287;28;20269;-71
2023/07/18 21:46:21;;;;;;;;;;;19.80;99.90;;;;;;8373604;28;20337;-71
2023/07/18 21:50:23;;;;;;;;;;;19.80;99.90;;;;;;8376092;28;19929;-71
2023/07/18 21:54:24;;;;;;;;;;;19.70;99.90;;;;;;8377901;28;19932;-71
2023/07/18 21:58:26;;;;;;;;;;;19.60;99.90;;;;;;8406158;28;19931;-71
2023/07/18 22:02:31;;;;;;;;;;;19.50;99.90;;;;;;8392048;28;19925;-71
2023/07/18 22:06:33;;;;;;;;;;;19.40;99.90;;;;;;8398839;28;19954;-71
2023/07/18 22:10:35;;;;;;;;;;;19.30;99.90;;;;;;8372933;28;19928;-72
2023/07/18 22:14:36;;;;;;;;;;;19.20;99.90;;;;;;8367762;28;19925;-71
2023/07/18 22:18:38;;;;;;;;;;;19.20;99.90;;;;;;8365283;28;20299;-71
2023/07/18 22:22:40;;;;;;;;;;;19.20;99.90;;;;;;8372580;28;20341;-71
2023/07/18 22:26:42;;;;;;;;;;;19.10;99.90;;;;;;8375318;28;19982;-71
2023/07/18 22:30:44;;;;;;;;;;;19.10;99.90;;;;;;8387712;28;20285;-71
2023/07/18 22:34:46;;;;;;;;;;;19.00;99.90;;;;;;8365720;28;19924;-72
2023/07/18 22:38:48;;;;;;;;;;;18.90;99.90;;;;;;8381299;28;20395;-71
2023/07/18 22:42:49;;;;;;;;;;;18.80;99.90;;;;;;8390508;28;19931;-71
2023/07/18 22:46:51;;;;;;;;;;;18.80;99.90;;;;;;8376581;28;19925;-71
2023/07/18 22:50:53;;;;;;;;;;;18.70;99.90;;;;;;8385705;28;20343;-71
2023/07/18 22:54:54;;;;;;;;;;;18.70;99.90;;;;;;8374629;28;19924;-71
2023/07/18 23:09:27;;;;;;;;;;;18.60;99.90;;;;;;8366730;28;20065;-72
2023/07/18 23:28:40;;;;;;;;;;;18.40;99.90;;;;;;8371472;28;19946;-71
2023/07/18 23:32:41;;;;;;;;;;;18.30;99.90;;;;;;8399207;28;20387;-71
2023/07/18 23:36:43;;;;;;;;;;;18.30;99.90;;;;;;8382445;28;20399;-71
2023/07/18 23:40:46;;;;;;;;;;;18.30;99.90;;;;;;8396394;28;20029;-71
2023/07/18 23:44:47;;;;;;;;;;;18.30;99.90;;;;;;8374482;28;20367;-71
2023/07/18 23:48:49;;;;;;;;;;;18.30;99.90;;;;;;8395426;28;19929;-71
2023/07/18 23:52:51;;;;;;;;;;;18.30;99.90;;;;;;8377147;28;19972;-71
2023/07/18 23:56:52;;;;;;;;;;;18.30;99.90;;;;;;8374676;28;19970;-71
